Weather at Kencor Airport [CLOSED]

Public forecast

Using degrees Celsius for public forecast. Weather courtesy of forecast.io.

Closest aviation weather report (METAR) to Kencor Airport

Closest report is Calgary / Springbank Airport, 11.9 nm (22.0 km) NNW. Retrieved 2021/05/14 07:00 UTC (11 minutes ago):

CYBW 140700Z AUTO 23009KT 9SM SCT140 05/03 A3015 RMK SLP238

Closest aviation forecast (TAF) to Kencor Airport

Forecast is more than 6 hours old.

Closest forecast is Calgary / Springbank Airport, 11.9 nm (22.0 km) NNW. Retrieved 2021-05-14 00:00 UTC (7 hours ago):

TAF CYBW 132339Z 1400/1404 25008KT P6SM SCT060 TEMPO 1400/1402 VRB15G25KT P6SM -SHRA VCTS BKN060CB FM140200 30008KT P6SM SCT060 TEMPO 1402/1404 BKN060 RMK FCST BASED ON AUTO OBS NXT FCST WILL BE ISSUED AT 141145Z